Time;durP1;ratioP1;P1;durP2;ratioP2;P2;SDS_P1;SDS_P2;PMS_P1;PMS_P2;Temp;Humidity;BMP_temperature;BMP_pressure;BME280_temperature;BME280_humidity;BME280_pressure;Samples;Min_cycle;Max_cycle;Signal;HPM_P1;HPM_P2
2021/03/16 00:01:13;;;;;;;139.45;56.73;;;;;;;-0.24;81.57;100607.47;1756643;81;21231;-70
2021/03/16 00:03:40;;;;;;;94.05;45.98;;;;;;;-0.25;81.74;100609.14;1756461;81;21138;-69
2021/03/16 00:06:08;;;;;;;114.10;55.05;;;;;;;-0.24;81.74;100612.23;1756494;81;21940;-69
2021/03/16 00:08:35;;;;;;;92.25;45.43;;;;;;;-0.26;81.71;100613.83;1756547;80;21194;-70
2021/03/16 00:11:02;;;;;;;99.15;46.37;;;;;;;-0.27;81.71;100605.56;1756668;81;21163;-69
2021/03/16 00:13:29;;;;;;;83.50;42.43;;;;;;;-0.29;81.73;100611.03;1756504;81;21882;-69
2021/03/16 00:15:57;;;;;;;95.92;45.58;;;;;;;-0.30;81.88;100612.22;1756637;81;21150;-68
2021/03/16 00:18:24;;;;;;;95.25;48.58;;;;;;;-0.32;81.82;100617.69;1756687;81;21546;-69
2021/03/16 00:20:52;;;;;;;104.78;52.33;;;;;;;-0.35;81.85;100617.09;1756622;81;21219;-69
2021/03/16 00:23:27;;;;;;;109.90;56.48;;;;;;;-0.36;81.93;100622.16;1756489;81;21191;-69
2021/03/16 00:25:54;;;;;;;118.77;56.68;;;;;;;-0.34;82.03;100627.03;1756615;81;21891;-68
2021/03/16 00:28:21;;;;;;;109.42;53.68;;;;;;;-0.34;82.18;100627.03;1756539;81;21231;-71
2021/03/16 00:30:49;;;;;;;113.50;55.05;;;;;;;-0.33;82.30;100637.49;1756538;81;21186;-70
2021/03/16 00:33:16;;;;;;;116.20;56.95;;;;;;;-0.32;82.29;100639.30;1756564;81;21178;-69
2021/03/16 00:35:43;;;;;;;109.35;54.42;;;;;;;-0.32;82.20;100640.96;1756558;80;21144;-68
2021/03/16 00:38:16;;;;;;;103.55;52.03;;;;;;;-0.34;82.34;100640.85;1756630;81;21890;-69
2021/03/16 00:40:44;;;;;;;88.82;46.65;;;;;;;-0.33;82.48;100636.61;1756545;81;21198;-68
2021/03/16 00:43:12;;;;;;;87.65;44.05;;;;;;;-0.33;82.54;100633.61;1756514;81;21542;-69
2021/03/16 00:45:39;;;;;;;98.67;47.93;;;;;;;-0.33;82.60;100639.19;1756511;81;21210;-69
2021/03/16 00:48:09;;;;;;;89.83;44.90;;;;;;;-0.34;82.50;100630.51;1756636;81;21130;-69
2021/03/16 00:50:36;;;;;;;89.65;44.90;;;;;;;-0.35;82.38;100632.62;1763834;81;21981;-69
2021/03/16 00:53:04;;;;;;;97.47;50.60;;;;;;;-0.38;82.22;100635.39;1764609;81;21155;-69
2021/03/16 00:55:31;;;;;;;91.97;48.02;;;;;;;-0.42;82.27;100637.77;1764602;81;21190;-70
2021/03/16 00:57:58;;;;;;;92.85;45.78;;;;;;;-0.43;82.34;100636.39;1764595;81;21573;-71
2021/03/16 01:00:26;;;;;;;89.42;46.18;;;;;;;-0.45;82.44;100634.99;1764632;81;21179;-70
2021/03/16 01:02:53;;;;;;;99.92;46.53;;;;;;;-0.44;82.53;100643.64;1764776;81;21901;-69
2021/03/16 01:05:20;;;;;;;97.00;47.62;;;;;;;-0.45;82.48;100637.58;1764481;81;21214;-70
2021/03/16 01:07:47;;;;;;;95.62;47.13;;;;;;;-0.45;82.36;100647.00;1764608;81;21175;-70
2021/03/16 01:10:16;;;;;;;98.85;46.40;;;;;;;-0.51;82.18;100641.02;1764569;81;21138;-70
2021/03/16 01:12:44;;;;;;;90.90;47.88;;;;;;;-0.55;82.15;100651.06;1764776;81;21162;-70
2021/03/16 01:15:12;;;;;;;91.85;48.95;;;;;;;-0.57;82.22;100651.36;1764598;81;22802;-69
2021/03/16 01:17:39;;;;;;;92.50;49.70;;;;;;;-0.56;82.33;100646.30;1764548;81;21206;-69
2021/03/16 01:20:17;;;;;;;89.95;46.30;;;;;;;-0.58;82.38;100651.77;1764698;81;21146;-70
2021/03/16 01:22:44;;;;;;;93.50;45.85;;;;;;;-0.57;82.46;100650.07;1764476;81;21213;-70
2021/03/16 01:25:12;;;;;;;88.22;45.28;;;;;;;-0.61;82.22;100642.50;1764534;81;21198;-71
2021/03/16 01:27:39;;;;;;;86.22;45.50;;;;;;;-0.65;82.20;100645.27;1765019;80;22899;-77
2021/03/16 01:30:09;;;;;;;84.87;44.35;;;;;;;-0.67;82.22;100649.44;1764634;81;21553;-71
2021/03/16 01:32:36;;;;;;;87.47;45.08;;;;;;;-0.68;82.29;100642.87;1764565;81;21115;-70
2021/03/16 01:35:07;;;;;;;87.95;44.45;;;;;;;-0.71;82.31;100642.28;1764885;81;21185;-70
2021/03/16 01:37:34;;;;;;;90.57;45.67;;;;;;;-0.72;82.34;100644.75;1764677;81;21202;-71
2021/03/16 01:40:01;;;;;;;93.27;48.80;;;;;;;-0.74;82.43;100647.63;1764746;81;22248;-70
2021/03/16 01:42:28;;;;;;;91.05;43.42;;;;;;;-0.74;82.47;100648.52;1764571;80;21203;-70
2021/03/16 01:44:55;;;;;;;93.42;44.20;;;;;;;-0.75;82.52;100647.11;1764743;81;21195;-70
2021/03/16 01:47:23;;;;;;;98.80;45.23;;;;;;;-0.76;82.56;100651.39;1764473;81;21194;-71
2021/03/16 01:49:50;;;;;;;87.82;43.42;;;;;;;-0.79;82.51;100650.80;1760167;80;21638;-70
2021/03/16 01:52:17;;;;;;;84.10;40.08;;;;;;;-0.80;82.43;100657.16;1756585;80;22120;-70
2021/03/16 01:54:44;;;;;;;85.17;41.28;;;;;;;-0.83;82.51;100657.81;1756390;81;21194;-70
2021/03/16 01:57:11;;;;;;;74.65;39.23;;;;;;;-0.80;82.67;100656.75;1756531;81;21132;-70
2021/03/16 01:59:39;;;;;;;77.53;39.35;;;;;;;-0.80;82.67;100663.20;1756493;81;21242;-71
2021/03/16 02:02:07;;;;;;;85.07;39.75;;;;;;;-0.81;82.56;100660.14;1731080;81;21171;-70
2021/03/16 02:04:34;;;;;;;74.72;39.42;;;;;;;-0.82;82.50;100657.45;1756566;81;22877;-70
2021/03/16 02:07:27;;;;;;;85.72;43.70;;;;;;;-0.85;82.53;100657.22;1756578;81;21627;-70
2021/03/16 02:10:11;;;;;;;81.92;39.58;;;;;;;-0.85;82.63;100659.41;1756881;81;21112;-70
2021/03/16 02:13:03;;;;;;;85.77;42.27;;;;;;;-0.85;82.61;100661.98;1756369;81;21114;-70
2021/03/16 02:15:34;;;;;;;84.75;40.20;;;;;;;-0.86;82.66;100658.92;1756398;81;21167;-70
2021/03/16 02:18:18;;;;;;;80.17;38.38;;;;;;;-0.87;82.67;100663.57;1756162;81;21885;-70
2021/03/16 02:20:59;;;;;;;80.45;39.63;;;;;;;-0.87;82.70;100658.80;1756658;81;21453;-70
2021/03/16 02:23:43;;;;;;;83.50;41.60;;;;;;;-0.90;82.63;100659.50;1756441;80;21207;-69
2021/03/16 02:26:29;;;;;;;84.15;41.35;;;;;;;-0.90;82.69;100659.88;1756442;81;21186;-69
2021/03/16 02:29:28;;;;;;;91.65;41.95;;;;;;;-0.91;82.71;100662.86;1756563;81;21115;-68
2021/03/16 02:32:05;;;;;;;98.55;46.00;;;;;;;-0.92;82.85;100662.38;1731214;81;21965;-69
2021/03/16 02:34:33;;;;;;;99.92;46.83;;;;;;;-0.92;82.90;100666.63;1755608;80;21218;-69
2021/03/16 02:37:04;;;;;;;100.82;46.42;;;;;;;-0.92;82.83;100670.50;1731192;81;21148;-69
2021/03/16 02:39:32;;;;;;;88.87;43.10;;;;;;;-0.94;82.87;100665.62;1756457;81;21368;-69
2021/03/16 02:41:59;;;;;;;84.28;42.45;;;;;;;-0.96;83.02;100673.27;1756636;81;21589;-69
2021/03/16 02:44:26;;;;;;;82.12;41.85;;;;;;;-0.95;83.13;100677.66;1756382;81;21999;-69
2021/03/16 02:46:53;;;;;;;76.25;39.90;;;;;;;-0.92;83.23;100676.59;1756363;81;21155;-69
2021/03/16 02:49:21;;;;;;;78.92;40.52;;;;;;;-0.90;83.20;100681.47;1762531;80;21208;-69
2021/03/16 02:51:48;;;;;;;85.28;40.78;;;;;;;-0.91;83.13;100684.83;1786478;79;21207;-69
2021/03/16 02:54:22;;;;;;;76.72;40.52;;;;;;;-0.93;82.94;100682.53;1786508;80;21172;-69
2021/03/16 02:57:10;;;;;;;80.75;40.20;;;;;;;-0.96;82.87;100690.06;1762345;80;21650;-69
2021/03/16 02:59:37;;;;;;;82.50;42.03;;;;;;;-1.00;82.76;100690.64;1786359;80;21143;-70
2021/03/16 03:02:04;;;;;;;79.40;41.15;;;;;;;-1.04;82.75;100689.53;1786575;80;21546;-70
2021/03/16 03:04:31;;;;;;;80.85;41.73;;;;;;;-1.06;82.77;100689.81;1786436;80;21243;-69
2021/03/16 03:06:59;;;;;;;85.67;43.02;;;;;;;-1.06;82.80;100689.81;1786470;80;21132;-69
2021/03/16 03:09:26;;;;;;;80.12;40.92;;;;;;;-1.03;82.94;100693.92;1786455;80;21962;-69
2021/03/16 03:11:54;;;;;;;79.60;39.85;;;;;;;-0.99;82.83;100700.20;1786432;80;21147;-70
2021/03/16 03:14:21;;;;;;;80.70;41.37;;;;;;;-1.05;82.60;100699.75;1735589;80;21136;-70
2021/03/16 03:16:54;;;;;;;81.40;40.43;;;;;;;-1.08;82.69;100697.86;1786562;80;21217;-69
2021/03/16 03:19:25;;;;;;;77.62;39.73;;;;;;;-1.09;82.66;100702.91;1786591;80;21195;-69
2021/03/16 03:22:12;;;;;;;76.82;39.70;;;;;;;-1.08;82.75;100706.90;1786446;80;21891;-69
2021/03/16 03:24:43;;;;;;;77.97;38.00;;;;;;;-1.09;82.70;100706.78;1786422;80;21191;-69
2021/03/16 03:27:33;;;;;;;76.53;37.93;;;;;;;-1.12;82.69;100711.34;1786530;79;21222;-69
2021/03/16 03:30:08;;;;;;;72.72;38.15;;;;;;;-1.16;82.71;100709.34;1786687;80;21120;-69
2021/03/16 03:32:42;;;;;;;75.92;38.28;;;;;;;-1.19;82.74;100711.70;1786730;80;21159;-69
2021/03/16 03:35:10;;;;;;;76.95;37.48;;;;;;;-1.19;82.83;100710.41;1786583;80;21837;-70
2021/03/16 03:37:37;;;;;;;78.07;37.48;;;;;;;-1.21;82.86;100709.00;1786544;80;21582;-70
2021/03/16 03:40:07;;;;;;;67.37;36.25;;;;;;;-1.21;82.92;100712.88;1786793;80;21161;-69
2021/03/16 03:42:35;;;;;;;73.70;37.50;;;;;;;-1.21;82.95;100714.56;1786673;80;21203;-68
2021/03/16 03:45:03;;;;;;;68.78;36.42;;;;;;;-1.21;82.91;100717.15;1786643;80;21638;-67
2021/03/16 03:47:43;;;;;;;69.37;35.78;;;;;;;-1.20;82.91;100720.25;1786568;80;21962;-68
2021/03/16 03:50:12;;;;;;;65.67;35.83;;;;;;;-1.20;82.89;100724.13;1777801;80;21568;-69
2021/03/16 03:52:40;;;;;;;70.65;34.75;;;;;;;-1.22;82.85;100730.84;1764655;81;21669;-69
2021/03/16 03:55:09;;;;;;;62.40;33.15;;;;;;;-1.23;82.81;100739.39;1764579;81;21667;-69
2021/03/16 03:57:36;;;;;;;62.58;35.63;;;;;;;-1.24;82.77;100745.33;1764724;81;21224;-69
2021/03/16 04:00:05;;;;;;;56.88;32.10;;;;;;;-1.27;82.82;100745.13;1734771;81;22872;-69
2021/03/16 04:02:32;;;;;;;55.83;30.08;;;;;;;-1.27;82.95;100746.02;1764624;81;21190;-69
2021/03/16 04:04:59;;;;;;;56.53;30.80;;;;;;;-1.29;82.93;100752.77;1764768;81;21131;-69
2021/03/16 04:07:27;;;;;;;58.33;29.95;;;;;;;-1.31;82.94;100753.05;1764581;80;21234;-69
2021/03/16 04:09:56;;;;;;;58.95;30.60;;;;;;;-1.31;82.80;100756.03;1764723;81;21597;-68
2021/03/16 04:12:23;;;;;;;57.25;31.75;;;;;;;-1.37;82.65;100763.83;1764627;80;21951;-68
2021/03/16 04:14:50;;;;;;;54.98;29.37;;;;;;;-1.37;82.74;100762.53;1764592;80;21190;-69
2021/03/16 04:17:18;;;;;;;53.70;27.85;;;;;;;-1.40;82.89;100755.84;1764573;81;21708;-69
2021/03/16 04:19:45;;;;;;;42.43;24.65;;;;;;;-1.39;83.22;100765.77;1764610;81;21198;-68
2021/03/16 04:22:12;;;;;;;46.20;26.40;;;;;;;-1.36;83.33;100772.46;1764653;81;21202;-68
2021/03/16 04:24:39;;;;;;;50.83;27.93;;;;;;;-1.34;83.40;100779.92;1764656;81;21889;-69
2021/03/16 04:27:09;;;;;;;50.60;27.48;;;;;;;-1.34;83.19;100781.62;1764588;81;21186;-69
2021/03/16 04:29:36;;;;;;;51.35;29.35;;;;;;;-1.33;83.09;100779.52;1764739;81;21242;-69
2021/03/16 04:32:04;;;;;;;50.90;27.75;;;;;;;-1.37;82.87;100778.40;1764675;80;21263;-69
2021/03/16 04:34:31;;;;;;;51.45;30.62;;;;;;;-1.40;82.74;100784.25;1764681;81;21187;-69
2021/03/16 04:36:58;;;;;;;51.18;30.05;;;;;;;-1.45;82.64;100784.30;1764622;81;22169;-69
2021/03/16 04:39:25;;;;;;;54.13;28.80;;;;;;;-1.47;82.79;100783.29;1764485;80;21171;-69
2021/03/16 04:41:52;;;;;;;50.78;27.07;;;;;;;-1.45;82.89;100780.83;1764666;81;21434;-69
2021/03/16 04:44:24;;;;;;;53.50;27.73;;;;;;;-1.45;82.97;100790.75;1764556;81;21273;-69
2021/03/16 04:46:53;;;;;;;56.30;28.57;;;;;;;-1.44;82.87;100792.56;1764505;81;21601;-69
2021/03/16 04:49:20;;;;;;;59.80;30.12;;;;;;;-1.49;82.80;100796.48;1764772;81;21961;-75
2021/03/16 04:51:48;;;;;;;55.65;29.72;;;;;;;-1.50;82.77;100797.28;1785423;79;21214;-72
2021/03/16 04:54:15;;;;;;;57.25;31.68;;;;;;;-1.47;82.82;100801.36;1786676;79;21219;-73
2021/03/16 04:56:42;;;;;;;52.23;30.12;;;;;;;-1.49;82.61;100803.34;1786659;80;21211;-74
2021/03/16 04:59:09;;;;;;;52.15;25.68;;;;;;;-1.49;82.67;100808.50;1786678;78;21581;-73
2021/03/16 05:01:36;;;;;;;51.20;27.20;;;;;;;-1.50;82.87;100805.39;1812641;78;22979;-73
2021/03/16 05:04:03;;;;;;;53.92;28.67;;;;;;;-1.46;83.09;100813.50;1786541;80;21184;-73
2021/03/16 05:06:30;;;;;;;50.15;26.77;;;;;;;-1.43;83.06;100816.28;1786699;80;21136;-73
2021/03/16 05:08:57;;;;;;;49.03;26.52;;;;;;;-1.41;83.07;100819.91;1786687;80;21762;-73
2021/03/16 05:11:25;;;;;;;45.92;25.45;;;;;;;-1.39;83.09;100827.73;1786951;78;21188;-73
2021/03/16 05:13:52;;;;;;;47.58;26.35;;;;;;;-1.36;83.10;100834.43;1786683;80;21984;-73
2021/03/16 05:16:21;;;;;;;52.62;26.15;;;;;;;-1.33;83.13;100831.16;1786538;80;21211;-74
2021/03/16 05:18:48;;;;;;;48.85;25.65;;;;;;;-1.28;83.24;100838.87;1786642;80;21131;-77
2021/03/16 05:21:15;;;;;;;46.95;26.70;;;;;;;-1.24;83.36;100835.35;1786123;78;21593;-76
2021/03/16 05:23:42;;;;;;;43.10;24.75;;;;;;;-1.19;83.46;100836.96;1817511;77;21156;-71
2021/03/16 05:26:09;;;;;;;47.03;26.37;;;;;;;-1.14;83.55;100843.37;1817664;78;21895;-73
2021/03/16 05:28:36;;;;;;;49.67;26.77;;;;;;;-1.07;83.60;100840.45;1818788;78;21152;-73
2021/03/16 05:31:03;;;;;;;43.50;25.43;;;;;;;-1.03;83.61;100833.42;1794402;78;21566;-72
2021/03/16 05:33:30;;;;;;;47.78;25.20;;;;;;;-0.97;83.61;100844.59;1815526;78;21602;-73
2021/03/16 05:35:57;;;;;;;43.28;24.70;;;;;;;-0.91;83.66;100842.45;1791853;78;21180;-70
2021/03/16 05:38:24;;;;;;;48.92;25.27;;;;;;;-0.82;83.65;100849.98;1798700;78;21892;-68
2021/03/16 05:40:51;;;;;;;38.73;23.22;;;;;;;-0.76;83.62;100851.70;1809182;77;21203;-68
2021/03/16 05:43:18;;;;;;;41.90;23.87;;;;;;;-0.68;83.62;100854.83;1817825;78;21172;-68
2021/03/16 05:45:45;;;;;;;47.10;25.00;;;;;;;-0.59;83.63;100856.78;1818600;78;21236;-68
2021/03/16 05:48:12;;;;;;;44.93;25.00;;;;;;;-0.49;83.62;100860.91;1807257;78;21211;-68
2021/03/16 05:50:39;;;;;;;43.90;24.37;;;;;;;-0.36;83.72;100861.39;1794615;78;22934;-68
2021/03/16 05:53:07;;;;;;;44.00;25.65;;;;;;;-0.23;83.61;100858.87;1818847;78;21105;-68
2021/03/16 05:55:34;;;;;;;46.65;26.82;;;;;;;-0.10;83.56;100859.33;1791716;78;21199;-68
2021/03/16 05:58:01;;;;;;;45.15;27.22;;;;;;;0.05;83.52;100865.96;1793711;78;21272;-68
2021/03/16 06:00:28;;;;;;;44.70;26.48;;;;;;;0.12;83.37;100866.48;1799327;78;21216;-69
2021/03/16 06:02:55;;;;;;;47.15;26.90;;;;;;;0.24;83.53;100862.53;1786597;79;22887;-68
2021/03/16 06:05:22;;;;;;;46.60;25.12;;;;;;;0.42;83.55;100860.30;1786482;80;21219;-68
2021/03/16 06:07:50;;;;;;;40.35;24.10;;;;;;;0.58;83.48;100860.55;1786457;80;21199;-68
2021/03/16 06:10:21;;;;;;;45.40;25.95;;;;;;;0.78;83.40;100864.43;1787533;78;21550;-68
2021/03/16 06:12:48;;;;;;;44.53;27.07;;;;;;;1.00;83.54;100861.96;1795994;78;21175;-68
2021/03/16 06:15:19;;;;;;;50.92;27.93;;;;;;;1.29;83.68;100867.71;1808234;78;22974;-70
2021/03/16 06:17:54;;;;;;;50.75;27.82;;;;;;;1.59;83.65;100861.79;1809474;78;21222;-69
2021/03/16 06:20:28;;;;;;;51.28;29.15;;;;;;;1.85;83.26;100864.70;1786540;80;21210;-70
2021/03/16 06:23:09;;;;;;;;;;;;;;;2.02;82.98;100866.63;1810581;78;21319;-70
2021/03/16 06:25:39;;;;;;;52.98;32.23;;;;;;;2.19;82.74;100870.66;1818859;78;20228;-70
2021/03/16 06:28:10;;;;;;;55.63;32.53;;;;;;;2.31;82.48;100864.92;1805530;78;21882;-70
2021/03/16 06:30:38;;;;;;;52.03;32.05;;;;;;;2.40;82.34;100869.75;1784558;80;21297;-70
2021/03/16 06:33:20;;;;;;;59.03;33.60;;;;;;;2.53;82.34;100872.27;1786448;80;21124;-70
2021/03/16 06:36:01;;;;;;;56.00;31.97;;;;;;;2.62;82.12;100875.82;1786455;80;21238;-70
2021/03/16 06:38:29;;;;;;;51.65;32.15;;;;;;;2.68;81.89;100876.17;1786447;80;21430;-69
2021/03/16 06:41:09;;;;;;;53.17;31.17;;;;;;;2.72;81.70;100879.44;1786571;80;21869;-70
2021/03/16 06:43:37;;;;;;;52.62;32.65;;;;;;;2.79;81.72;100875.50;1763195;78;21193;-71
2021/03/16 06:46:04;;;;;;;46.70;30.88;;;;;;;2.85;81.64;100878.08;1786498;80;21128;-71
2021/03/16 06:48:36;;;;;;;63.08;34.43;;;;;;;2.89;81.63;100881.72;1786329;80;21200;-71
2021/03/16 06:51:13;;;;;;;57.67;33.67;;;;;;;2.90;81.48;100884.82;1778518;80;21174;-72
2021/03/16 06:53:40;;;;;;;60.03;35.15;;;;;;;2.96;81.57;100882.98;1764696;79;21906;-71
2021/03/16 06:56:08;;;;;;;65.20;37.58;;;;;;;2.98;81.45;100890.46;1787054;78;21117;-71
2021/03/16 06:58:36;;;;;;;62.60;37.30;;;;;;;3.00;81.47;100887.13;1764296;80;21190;-71
2021/03/16 07:01:10;;;;;;;62.75;38.58;;;;;;;3.03;81.46;100892.52;1771735;77;21199;-71
2021/03/16 07:03:37;;;;;;;63.10;36.68;;;;;;;3.09;81.61;100891.56;1798473;78;21144;-71
2021/03/16 07:06:19;;;;;;;65.28;37.15;;;;;;;3.16;81.52;100890.63;1813242;79;22690;-71
2021/03/16 07:08:47;;;;;;;60.48;35.78;;;;;;;3.19;81.48;100893.01;1809415;78;21167;-71
2021/03/16 07:11:17;;;;;;;61.98;36.68;;;;;;;3.25;81.57;100894.65;1804519;79;21259;-71
2021/03/16 07:13:44;;;;;;;61.25;35.80;;;;;;;3.30;81.48;100900.09;1789967;79;21198;-70
2021/03/16 07:16:12;;;;;;;59.38;36.17;;;;;;;3.31;81.37;100900.19;1785836;79;21187;-70
2021/03/16 07:18:42;;;;;;;64.17;36.63;;;;;;;3.33;81.41;100903.30;1774379;79;21793;-71
2021/03/16 07:21:23;;;;;;;62.95;37.50;;;;;;;3.37;81.49;100907.44;1760516;79;21147;-72
2021/03/16 07:23:56;;;;;;;62.38;36.90;;;;;;;3.39;81.37;100911.44;1765087;79;21628;-70
2021/03/16 07:26:24;;;;;;;63.80;38.08;;;;;;;3.40;81.42;100910.64;1779103;80;21625;-71
2021/03/16 07:28:52;;;;;;;60.33;38.35;;;;;;;3.41;81.52;100914.61;1760041;80;21207;-72
2021/03/16 07:31:19;;;;;;;72.65;39.67;;;;;;;3.50;81.75;100914.23;1786376;79;21866;-72
2021/03/16 07:33:46;;;;;;;64.60;39.55;;;;;;;3.57;81.83;100919.39;1774825;80;21628;-72
2021/03/16 07:36:13;;;;;;;61.50;39.55;;;;;;;3.64;81.75;100924.11;1782691;80;21727;-72
2021/03/16 07:38:40;;;;;;;63.48;39.08;;;;;;;3.68;81.86;100927.39;1795249;79;21214;-72
2021/03/16 07:41:08;;;;;;;65.62;40.63;;;;;;;3.75;81.97;100931.22;1796005;79;21593;-72
2021/03/16 07:43:40;;;;;;;78.55;44.70;;;;;;;3.79;81.98;100931.48;1765948;79;21892;-72
2021/03/16 07:46:17;;;;;;;75.83;46.88;;;;;;;3.84;81.98;100933.91;1764538;81;21163;-70
2021/03/16 07:48:51;;;;;;;81.53;48.50;;;;;;;3.91;81.99;100940.38;1774828;79;21198;-70
2021/03/16 07:51:21;;;;;;;91.08;50.85;;;;;;;3.95;81.95;100938.83;1788068;79;21661;-71
2021/03/16 07:53:58;;;;;;;78.90;45.70;;;;;;;3.97;81.83;100936.79;1779711;80;21207;-73
2021/03/16 07:56:26;;;;;;;79.75;47.60;;;;;;;3.97;81.80;100942.41;1792121;79;21838;-72
2021/03/16 07:58:53;;;;;;;76.62;44.73;;;;;;;3.99;81.86;100940.78;1795817;79;21131;-71
2021/03/16 08:01:20;;;;;;;76.65;45.40;;;;;;;4.04;82.09;100945.43;1804348;78;21192;-71
2021/03/16 08:03:47;;;;;;;70.92;45.43;;;;;;;4.14;82.10;100945.52;1803378;79;21200;-71
2021/03/16 08:06:24;;;;;;;73.30;44.25;;;;;;;4.23;82.02;100949.03;1801721;79;21204;-71
2021/03/16 08:08:51;;;;;;;66.25;39.80;;;;;;;4.27;81.95;100945.77;1803297;79;21886;-72
2021/03/16 08:11:18;;;;;;;70.90;43.70;;;;;;;4.34;81.91;100953.11;1795857;79;21617;-72
2021/03/16 08:13:59;;;;;;;82.37;46.92;;;;;;;4.41;81.84;100950.41;1788932;78;21234;-72
2021/03/16 08:16:38;;;;;;;83.92;47.98;;;;;;;4.47;81.77;100949.03;1819309;77;21160;-72
2021/03/16 08:19:18;;;;;;;82.65;43.87;;;;;;;4.51;81.61;100952.70;1808450;77;21180;-71
2021/03/16 08:21:46;;;;;;;68.33;40.85;;;;;;;4.55;81.64;100949.43;1792264;78;22880;-71
2021/03/16 08:24:14;;;;;;;71.30;41.37;;;;;;;4.62;81.62;100950.66;1819226;78;21159;-72
2021/03/16 08:26:43;;;;;;;73.90;39.63;;;;;;;4.66;81.31;100954.80;1764713;79;21465;-72
2021/03/16 08:29:10;;;;;;;66.07;40.20;;;;;;;4.73;81.40;100959.02;1788524;78;21502;-72
2021/03/16 08:31:37;;;;;;;63.38;37.23;;;;;;;4.80;81.33;100961.12;1800955;77;21175;-73
2021/03/16 08:34:07;;;;;;;59.70;33.25;;;;;;;4.89;81.17;100961.61;1805908;78;21137;-73
2021/03/16 08:36:44;;;;;;;48.33;28.83;;;;;;;4.95;80.90;100962.33;1787413;78;21468;-73
2021/03/16 08:39:23;;;;;;;51.65;30.97;;;;;;;5.01;80.57;100964.86;1807565;78;21077;-73
2021/03/16 08:42:00;;;;;;;56.68;34.30;;;;;;;5.09;80.41;100965.23;1819081;78;21172;-72
2021/03/16 08:44:31;;;;;;;59.67;35.90;;;;;;;5.16;80.47;100971.64;1815118;78;21121;-72
2021/03/16 08:47:12;;;;;;;54.83;33.23;;;;;;;5.20;80.19;100970.97;1804926;78;21228;-72
2021/03/16 08:49:42;;;;;;;63.80;34.80;;;;;;;5.25;80.35;100975.64;1817453;78;21195;-72
2021/03/16 08:52:26;;;;;;;53.95;31.10;;;;;;;5.37;80.42;100977.06;1793399;78;21060;-71
2021/03/16 08:54:56;;;;;;;43.80;27.82;;;;;;;5.44;80.21;100977.83;1786459;80;21660;-73
2021/03/16 08:57:25;;;;;;;50.80;26.10;;;;;;;5.52;79.73;100983.42;1800929;78;21176;-72
2021/03/16 08:59:57;;;;;;;39.00;23.42;;;;;;;5.57;79.50;100980.21;1818581;78;22099;-71
2021/03/16 09:02:29;;;;;;;36.50;23.05;;;;;;;5.63;79.19;100979.61;1790679;78;21657;-71
2021/03/16 09:04:56;;;;;;;42.45;27.55;;;;;;;5.67;78.92;100982.89;1794793;78;21195;-73
2021/03/16 09:07:33;;;;;;;39.88;26.12;;;;;;;5.75;78.83;100987.17;1818316;78;21215;-72
2021/03/16 09:10:17;;;;;;;45.85;29.85;;;;;;;5.76;78.43;100991.17;1808380;77;21223;-71
2021/03/16 09:12:46;;;;;;;45.38;28.80;;;;;;;5.80;78.60;100991.80;1792789;78;21905;-73
2021/03/16 09:15:18;;;;;;;52.20;31.02;;;;;;;5.89;78.58;100991.31;1818693;78;21133;-72
2021/03/16 09:17:48;;;;;;;51.00;31.17;;;;;;;5.96;78.41;100996.47;1818296;78;21183;-73
2021/03/16 09:20:31;;;;;;;57.55;31.02;;;;;;;6.00;78.29;100991.45;1804715;77;21648;-72
2021/03/16 09:23:05;;;;;;;51.85;32.00;;;;;;;6.05;78.22;100999.53;1818299;77;21622;-74
2021/03/16 09:25:39;;;;;;;52.38;30.32;;;;;;;6.14;78.14;100999.96;1800715;78;22073;-71
2021/03/16 09:28:08;;;;;;;49.55;31.95;;;;;;;6.24;78.21;101002.59;1785656;79;21562;-71
2021/03/16 09:30:45;;;;;;;54.23;32.48;;;;;;;6.34;78.05;100998.25;1815258;77;21176;-73
2021/03/16 09:33:15;;;;;;;54.10;33.10;;;;;;;6.47;77.99;100997.52;1815539;79;21627;-74
2021/03/16 09:35:42;;;;;;;55.08;34.95;;;;;;;6.55;77.81;101002.67;1803962;79;21173;-73
2021/03/16 09:38:09;;;;;;;55.75;35.65;;;;;;;6.66;78.01;100999.23;1816267;77;22864;-72
2021/03/16 09:40:39;;;;;;;50.50;33.00;;;;;;;6.80;78.06;101004.26;1794042;80;21553;-74
2021/03/16 09:43:21;;;;;;;55.60;34.38;;;;;;;6.90;77.71;101005.98;1794178;79;21202;-73
2021/03/16 09:45:58;;;;;;;53.23;34.38;;;;;;;6.94;77.45;101009.20;1794306;79;21275;-74
2021/03/16 09:48:26;;;;;;;52.93;33.18;;;;;;;6.96;77.07;101004.54;1816452;77;21182;-74
2021/03/16 09:50:56;;;;;;;51.70;33.55;;;;;;;7.04;77.16;101009.18;1794158;80;22714;-73
2021/03/16 09:53:25;;;;;;;46.37;30.70;;;;;;;7.12;76.90;101008.70;1796272;78;21246;-73
2021/03/16 09:55:59;;;;;;;46.48;30.75;;;;;;;7.13;76.63;101013.13;1792707;80;21190;-74
2021/03/16 09:58:28;;;;;;;46.05;28.87;;;;;;;7.15;76.38;101015.39;1811502;79;21103;-74
2021/03/16 10:00:55;;;;;;;45.83;28.92;;;;;;;7.16;76.22;101011.03;1796290;78;21142;-74
2021/03/16 10:03:22;;;;;;;43.85;27.87;;;;;;;7.17;76.11;101018.05;1809049;79;21895;-72
2021/03/16 10:05:49;;;;;;;42.25;27.67;;;;;;;7.16;75.91;101018.47;1829565;78;21186;-73
2021/03/16 10:08:24;;;;;;;40.95;26.90;;;;;;;7.11;75.74;101019.09;1793196;79;21302;-73
2021/03/16 10:10:51;;;;;;;35.88;25.62;;;;;;;7.11;75.61;101021.71;1829649;78;21186;-71
2021/03/16 10:13:31;;;;;;;36.95;25.60;;;;;;;7.09;75.54;101016.83;1813723;79;21112;-72
2021/03/16 10:16:06;;;;;;;40.80;28.70;;;;;;;7.12;75.54;101022.20;1804767;78;21900;-73
2021/03/16 10:18:44;;;;;;;40.67;27.52;;;;;;;7.19;75.61;101021.66;1790396;78;21191;-73
2021/03/16 10:21:11;;;;;;;48.08;28.02;;;;;;;7.24;75.44;101025.34;1829902;78;21167;-71
2021/03/16 10:23:38;;;;;;;38.38;24.98;;;;;;;7.27;75.23;101025.91;1788780;79;21215;-71
2021/03/16 10:26:08;;;;;;;40.52;24.30;;;;;;;7.32;75.30;101025.27;1780987;78;21570;-72
2021/03/16 10:28:40;;;;;;;38.92;26.17;;;;;;;7.38;75.12;101031.18;1785828;80;21892;-71
2021/03/16 10:31:13;;;;;;;35.85;24.52;;;;;;;7.44;74.93;101031.43;1759933;80;21113;-71
2021/03/16 10:33:40;;;;;;;41.75;25.12;;;;;;;7.47;74.73;101035.50;1762737;79;21147;-71
2021/03/16 10:36:08;;;;;;;36.65;24.82;;;;;;;7.54;74.68;101032.28;1784642;80;21128;-71
2021/03/16 10:38:35;;;;;;;32.05;22.82;;;;;;;7.62;74.54;101033.02;1736501;80;21206;-72
2021/03/16 10:41:02;;;;;;;30.15;21.02;;;;;;;7.65;74.16;101028.80;1789564;80;22775;-72
2021/03/16 10:43:29;;;;;;;33.90;22.02;;;;;;;7.71;73.93;101033.41;1758119;80;21173;-72
2021/03/16 10:45:57;;;;;;;29.40;20.35;;;;;;;7.82;73.86;101032.54;1758291;81;21229;-71
2021/03/16 10:48:26;;;;;;;31.48;20.02;;;;;;;7.95;73.84;101034.39;1780564;80;38229;-71
2021/03/16 10:50:54;;;;;;;31.73;21.20;;;;;;;8.09;73.60;101039.29;1794372;80;21210;-72
2021/03/16 10:53:21;;;;;;;38.63;25.43;;;;;;;8.06;73.21;101038.77;1789331;79;21870;-72
2021/03/16 10:55:48;;;;;;;40.85;28.70;;;;;;;8.00;73.30;101042.89;1776415;79;21664;-72
2021/03/16 10:58:15;;;;;;;42.38;28.10;;;;;;;7.87;73.31;101038.44;1779501;79;21574;-72
2021/03/16 11:00:42;;;;;;;39.20;25.70;;;;;;;7.78;73.58;101037.64;1771861;80;21231;-72
2021/03/16 11:03:09;;;;;;;36.80;24.20;;;;;;;7.75;73.45;101046.71;1764462;80;21164;-71
2021/03/16 11:05:36;;;;;;;34.13;24.45;;;;;;;7.72;73.31;101057.48;1766102;80;21948;-72
2021/03/16 11:08:04;;;;;;;37.05;21.20;;;;;;;7.64;73.05;101049.30;1774969;80;21191;-71
2021/03/16 11:10:32;;;;;;;35.75;22.85;;;;;;;7.61;73.06;101048.28;1777249;80;21196;-71
2021/03/16 11:12:58;;;;;;;35.23;23.05;;;;;;;7.59;72.99;101049.09;1779668;80;21318;-70
2021/03/16 11:15:25;;;;;;;32.20;21.02;;;;;;;7.61;73.04;101049.16;1767938;80;21248;-71
2021/03/16 11:17:53;;;;;;;26.40;18.77;;;;;;;7.65;72.90;101052.80;1776992;80;21897;-70
2021/03/16 11:20:20;;;;;;;28.73;17.48;;;;;;;7.62;72.73;101052.67;1781006;80;21139;-71
2021/03/16 11:22:47;;;;;;;25.43;15.95;;;;;;;7.61;72.49;101053.52;1764741;80;21179;-71
2021/03/16 11:25:14;;;;;;;29.70;15.75;;;;;;;7.62;72.32;101052.28;1784803;80;21231;-71